ホーチミン の空港の天気 - METARとTAF

タンソンニャット国際空港 (ホーチミン) ( VVTS / SGN ) - ベトナム ホーチミン市
飛行場実況気象(Metar)
観測時間05/27 06:00 ICT (05/26 23:00 UTC)
風向・風速北東 1m/s
視程10km以上
天気現象
少しの雲 雲底高度 520m
気温28℃
湿度89%
気圧1010hPa
METARVVTS 262300Z 05002KT 9999 FEW017 28/26 Q1010 NOSIG
過去の天気等 Google飛行場航空写真 Wunderground天気予報

過去48時間のMETAR

飛行場予報(TAF)
発表時間: 5/27 00:00 ICT (5/26 17:00 UTC)
予報対象時間: 27日1時 ICT ~ 28日7時 ICT
風向・風速西南西 5m/s
視程10km以上
少しの雲 雲底高度 520m
27日14時 ICT ~ 27日18時 ICT に一時的に
天気現象
全天の4割程度の雲 雲底高度 460m
少しの積乱雲 雲底高度 520m
TAF VVTS 261700Z 2618/2724 25010KT 9999 FEW017
TEMPO 2707/2711 TS SCT015 FEW017CB